createdAt,value
2022-12-04T00:01:45.622Z,102721.69
2022-12-04T00:04:13.862Z,102716.96
2022-12-04T00:06:43.171Z,102724.14
2022-12-04T00:09:11.372Z,102729.34
2022-12-04T00:11:39.913Z,102729.49
2022-12-04T00:14:08.263Z,102732.88
2022-12-04T00:16:36.628Z,102734.25
2022-12-04T00:19:05.655Z,102737.01
2022-12-04T00:21:34.114Z,102733.16
2022-12-04T00:24:02.317Z,102734.20
2022-12-04T00:26:31.362Z,102730.25
2022-12-04T00:29:00.511Z,102723.34
2022-12-04T00:31:30.775Z,102724.91
2022-12-04T00:34:00.336Z,102709.55
2022-12-04T00:36:29.618Z,102720.29
2022-12-04T00:39:00.030Z,102719.13
2022-12-04T00:41:30.796Z,102719.57
2022-12-04T00:44:00.451Z,102718.13
2022-12-04T00:46:29.948Z,102720.30
2022-12-04T00:49:01.916Z,102721.85
2022-12-04T00:51:30.367Z,102725.17
2022-12-04T00:53:58.598Z,102722.39
2022-12-04T00:56:28.769Z,102718.34
2022-12-04T00:58:59.539Z,102716.81
2022-12-04T01:01:29.756Z,102718.15
2022-12-04T01:03:58.011Z,102717.61
2022-12-04T01:06:28.492Z,102723.19
2022-12-04T01:08:57.996Z,102718.14
2022-12-04T01:11:28.064Z,102714.45
2022-12-04T01:13:57.554Z,102697.31
2022-12-04T01:16:29.507Z,102706.12
2022-12-04T01:18:58.162Z,102705.11
2022-12-04T01:21:27.014Z,102703.71
2022-12-04T01:23:55.482Z,102704.61
2022-12-04T01:26:24.043Z,102703.61
2022-12-04T01:28:52.307Z,102705.36
2022-12-04T01:31:22.473Z,102707.06
2022-12-04T01:33:51.460Z,102702.70
2022-12-04T01:36:22.828Z,102700.54
2022-12-04T01:38:51.507Z,102694.23
2022-12-04T01:41:24.301Z,102690.91
2022-12-04T01:44:10.936Z,102685.17
2022-12-04T01:46:41.475Z,102679.92
2022-12-04T01:49:14.753Z,102681.66
2022-12-04T01:51:46.266Z,102684.91
2022-12-04T01:54:22.789Z,102685.06
2022-12-04T01:56:57.393Z,102691.55
2022-12-04T01:59:32.334Z,102693.75
2022-12-04T02:02:11.044Z,102690.73
2022-12-04T02:04:40.994Z,102688.95
2022-12-04T02:07:09.810Z,102691.13
2022-12-04T02:09:40.034Z,102695.96
2022-12-04T02:12:14.403Z,102692.55
2022-12-04T02:14:51.764Z,102684.55
2022-12-04T02:17:28.616Z,102683.25
2022-12-04T02:20:11.234Z,102681.77
2022-12-04T02:23:04.171Z,102680.61
2022-12-04T02:25:48.127Z,102661.23
2022-12-04T02:28:28.761Z,102658.73
2022-12-04T02:31:01.449Z,102669.79
2022-12-04T02:33:44.766Z,102667.30
2022-12-04T02:36:22.958Z,102664.00
2022-12-04T02:39:02.316Z,102664.73
2022-12-04T02:41:42.755Z,102668.16
2022-12-04T02:44:29.469Z,102670.60
2022-12-04T02:47:02.604Z,102667.06
2022-12-04T02:49:37.324Z,102663.48
2022-12-04T02:52:10.766Z,102663.21
2022-12-04T02:54:47.027Z,102665.35
2022-12-04T02:57:25.997Z,102666.84
2022-12-04T02:59:57.857Z,102650.63
2022-12-04T03:02:41.722Z,102665.34
2022-12-04T03:05:12.972Z,102652.43
2022-12-04T03:07:52.207Z,102667.41
2022-12-04T03:10:30.859Z,102661.08
2022-12-04T03:13:07.160Z,102654.26
2022-12-04T03:15:41.937Z,102632.84
2022-12-04T03:18:13.714Z,102654.60
2022-12-04T03:20:43.604Z,102657.35
2022-12-04T03:23:29.488Z,102658.08
2022-12-04T03:26:04.812Z,102655.86
2022-12-04T03:28:44.660Z,102648.77
2022-12-04T03:31:15.476Z,102652.36
2022-12-04T03:33:47.761Z,102658.23
2022-12-04T03:36:31.569Z,102659.91
2022-12-04T03:39:11.941Z,102647.98
2022-12-04T03:41:50.213Z,102644.32
2022-12-04T03:44:25.358Z,102637.33
2022-12-04T03:47:04.764Z,102638.88
2022-12-04T03:50:00.298Z,102629.09
2022-12-04T03:52:45.733Z,102650.79
2022-12-04T03:55:17.984Z,102660.52
2022-12-04T03:57:48.376Z,102665.91
2022-12-04T04:00:22.357Z,102666.17
2022-12-04T04:02:54.263Z,102661.86
2022-12-04T04:05:24.135Z,102655.18
2022-12-04T04:08:18.799Z,102648.63
2022-12-04T04:10:49.224Z,102643.95
2022-12-04T04:13:40.620Z,102648.47
2022-12-04T04:16:33.413Z,102651.42
2022-12-04T04:19:21.744Z,102646.48
2022-12-04T04:22:12.128Z,102651.62
2022-12-04T04:24:47.865Z,102648.16
2022-12-04T04:27:15.986Z,102644.36
2022-12-04T04:29:51.849Z,102648.56
2022-12-04T04:32:55.613Z,102645.84
2022-12-04T04:36:03.572Z,102642.36
2022-12-04T04:38:48.108Z,102631.30
2022-12-04T04:41:33.358Z,102632.57
2022-12-04T04:44:15.985Z,102645.81
2022-12-04T04:46:49.852Z,102644.23
2022-12-04T04:49:22.457Z,102639.93
2022-12-04T04:51:50.940Z,102639.30
2022-12-04T04:54:20.148Z,102639.48
2022-12-04T04:56:48.565Z,102630.14
2022-12-04T04:59:16.789Z,102620.54
2022-12-04T05:01:46.665Z,102618.14
2022-12-04T05:04:15.293Z,102617.94
2022-12-04T05:06:43.669Z,102607.48
2022-12-04T05:09:11.915Z,102599.99
2022-12-04T05:11:40.368Z,102600.02
2022-12-04T05:14:09.721Z,102612.87
2022-12-04T05:16:40.813Z,102618.04
2022-12-04T05:19:27.586Z,102620.73
2022-12-04T05:21:57.245Z,102621.52
2022-12-04T05:24:25.391Z,102608.42
2022-12-04T05:26:54.028Z,102601.25
2022-12-04T05:29:22.295Z,102600.94
2022-12-04T05:31:50.843Z,102591.91
2022-12-04T05:34:19.120Z,102618.12
2022-12-04T05:36:47.507Z,102623.78
2022-12-04T05:39:15.646Z,102619.87
2022-12-04T05:41:43.907Z,102624.74
2022-12-04T05:44:12.136Z,102628.70
2022-12-04T05:46:40.518Z,102636.11
2022-12-04T05:49:08.778Z,102622.30
2022-12-04T05:51:37.125Z,102640.82
2022-12-04T05:54:05.319Z,102642.84
2022-12-04T05:56:33.648Z,102643.23
2022-12-04T05:59:01.850Z,102642.27
2022-12-04T06:01:30.043Z,102647.56
2022-12-04T06:03:58.287Z,102653.92
2022-12-04T06:06:27.167Z,102660.52
2022-12-04T06:08:58.952Z,102661.21
2022-12-04T06:11:32.716Z,102660.16
2022-12-04T06:14:03.478Z,102660.80
2022-12-04T06:16:36.835Z,102633.98
2022-12-04T06:19:06.886Z,102628.20
2022-12-04T06:21:37.054Z,102632.89
2022-12-04T06:24:06.075Z,102626.98
2022-12-04T06:26:34.595Z,102628.37
2022-12-04T06:29:02.812Z,102624.86
2022-12-04T06:31:31.290Z,102640.86
2022-12-04T06:33:59.932Z,102651.94
2022-12-04T06:36:28.260Z,102654.55
2022-12-04T06:38:58.351Z,102638.77
2022-12-04T06:41:27.859Z,102652.81
2022-12-04T06:43:56.510Z,102652.77
2022-12-04T06:46:27.544Z,102656.19
2022-12-04T06:48:58.271Z,102660.71
2022-12-04T06:51:26.699Z,102667.45
2022-12-04T06:53:55.057Z,102666.85
2022-12-04T06:56:26.008Z,102663.52
2022-12-04T06:58:56.815Z,102657.59
2022-12-04T07:01:27.372Z,102658.59
2022-12-04T07:03:57.018Z,102656.27
2022-12-04T07:06:28.894Z,102663.45
2022-12-04T07:09:05.704Z,102672.33
2022-12-04T07:11:35.166Z,102675.23
2022-12-04T07:14:04.108Z,102673.95
2022-12-04T07:16:40.041Z,102670.27
2022-12-04T07:19:13.379Z,102668.81
2022-12-04T07:21:42.625Z,102669.98
2022-12-04T07:24:16.406Z,102673.77
2022-12-04T07:26:45.165Z,102678.09
2022-12-04T07:29:13.699Z,102677.90
2022-12-04T07:31:42.303Z,102679.95
2022-12-04T07:34:10.579Z,102682.98
2022-12-04T07:36:40.616Z,102683.98
2022-12-04T07:39:08.954Z,102680.42
2022-12-04T07:41:37.891Z,102674.57
2022-12-04T07:44:07.459Z,102670.45
2022-12-04T07:46:35.936Z,102666.26
2022-12-04T07:49:04.204Z,102661.06
2022-12-04T07:51:32.777Z,102664.54
2022-12-04T07:54:04.139Z,102665.05
2022-12-04T07:56:33.714Z,102661.76
2022-12-04T07:59:02.523Z,102654.72
2022-12-04T08:01:31.754Z,102663.23
2022-12-04T08:04:03.218Z,102663.16
2022-12-04T08:06:34.826Z,102659.60
2022-12-04T08:09:09.572Z,102656.95
2022-12-04T08:11:39.182Z,102654.30
2022-12-04T08:14:09.130Z,102648.68
2022-12-04T08:16:38.175Z,102644.69
2022-12-04T08:19:06.776Z,102642.42
2022-12-04T08:21:35.113Z,102636.40
2022-12-04T08:24:03.487Z,102637.91
2022-12-04T08:26:33.900Z,102652.04
2022-12-04T08:29:03.653Z,102653.36
2022-12-04T08:31:34.213Z,102650.43
2022-12-04T08:34:05.956Z,102642.77
2022-12-04T08:36:34.604Z,102656.50
2022-12-04T08:39:03.277Z,102657.55
2022-12-04T08:41:31.472Z,102657.27
2022-12-04T08:44:01.165Z,102662.88
2022-12-04T08:46:29.684Z,102666.73
2022-12-04T08:48:58.332Z,102663.92
2022-12-04T08:51:30.196Z,102661.98
2022-12-04T08:54:01.354Z,102663.23
2022-12-04T08:56:30.752Z,102651.94
2022-12-04T08:59:00.056Z,102644.17
2022-12-04T09:01:29.708Z,102640.01
2022-12-04T09:03:58.432Z,102640.39
2022-12-04T09:06:27.009Z,102639.84
2022-12-04T09:08:56.963Z,102644.02
2022-12-04T09:11:27.811Z,102648.20
2022-12-04T09:13:56.442Z,102640.70
2022-12-04T09:16:26.191Z,102642.04
2022-12-04T09:18:55.092Z,102638.62
2022-12-04T09:21:24.883Z,102640.92
2022-12-04T09:23:53.120Z,102638.02
2022-12-04T09:26:30.144Z,102635.20
2022-12-04T09:29:00.584Z,102640.54
2022-12-04T09:31:29.497Z,102634.81
2022-12-04T09:33:58.867Z,102632.92
2022-12-04T09:36:27.587Z,102629.27
2022-12-04T09:38:55.811Z,102632.45
2022-12-04T09:42:00.927Z,102631.71
2022-12-04T09:44:40.591Z,102636.89
2022-12-04T09:47:25.720Z,102624.11
2022-12-04T09:49:59.130Z,102630.00
2022-12-04T09:52:39.621Z,102628.05
2022-12-04T09:55:16.080Z,102627.30
2022-12-04T09:57:48.647Z,102621.23
2022-12-04T10:00:19.058Z,102618.22
2022-12-04T10:02:55.411Z,102620.84
2022-12-04T10:05:58.980Z,102628.75
2022-12-04T10:08:40.629Z,102623.83
2022-12-04T10:11:32.199Z,102622.17
2022-12-04T10:14:29.551Z,102618.39
2022-12-04T10:17:16.084Z,102618.31
2022-12-04T10:19:54.589Z,102617.77
2022-12-04T10:23:02.665Z,102609.51
2022-12-04T10:25:35.189Z,102599.95
2022-12-04T10:28:30.319Z,102595.94
2022-12-04T10:31:02.326Z,102593.27
2022-12-04T10:33:42.149Z,102598.63
2022-12-04T10:36:17.387Z,102600.98
2022-12-04T10:38:56.503Z,102598.12
2022-12-04T10:41:27.199Z,102594.18
2022-12-04T10:43:55.891Z,102591.25
2022-12-04T10:46:29.546Z,102593.21
2022-12-04T10:49:07.051Z,102593.06
2022-12-04T10:51:40.934Z,102593.29
2022-12-04T10:54:23.498Z,102600.42
2022-12-04T10:56:57.998Z,102602.79
2022-12-04T10:59:27.975Z,102601.20
2022-12-04T11:02:17.763Z,102598.66
2022-12-04T11:04:57.236Z,102583.24
2022-12-04T11:07:32.459Z,102595.17
2022-12-04T11:10:05.336Z,102590.60
2022-12-04T11:12:33.891Z,102590.17
2022-12-04T11:15:08.111Z,102591.50
2022-12-04T11:17:36.790Z,102597.45
2022-12-04T11:20:09.211Z,102597.42
2022-12-04T11:22:50.739Z,102590.45
2022-12-04T11:25:21.272Z,102594.27
2022-12-04T11:27:53.332Z,102589.42
2022-12-04T11:30:26.413Z,102584.64
2022-12-04T11:32:55.623Z,102586.22
2022-12-04T11:35:27.803Z,102580.73
2022-12-04T11:38:08.221Z,102580.19
2022-12-04T11:40:36.987Z,102567.36
2022-12-04T11:43:13.566Z,102569.80
2022-12-04T11:45:42.578Z,102571.30
2022-12-04T11:48:18.687Z,102573.08
2022-12-04T11:51:08.985Z,102567.88
2022-12-04T11:53:55.987Z,102584.04
2022-12-04T11:56:27.326Z,102589.17
2022-12-04T11:59:17.013Z,102585.26
2022-12-04T12:02:10.276Z,102586.80
2022-12-04T12:05:08.272Z,102584.43
2022-12-04T12:07:48.917Z,102584.80
2022-12-04T12:10:46.723Z,102584.80
2022-12-04T12:13:42.983Z,102579.35
2022-12-04T12:16:23.871Z,102579.77
2022-12-04T12:19:02.788Z,102580.24
2022-12-04T12:21:50.000Z,102576.59
2022-12-04T12:24:21.292Z,102579.71
2022-12-04T12:27:19.306Z,102580.23
2022-12-04T12:29:56.788Z,102583.95
2022-12-04T12:32:32.943Z,102586.96
2022-12-04T12:35:03.054Z,102587.77
2022-12-04T12:37:40.273Z,102586.41
2022-12-04T12:40:28.075Z,102581.01
2022-12-04T12:43:02.102Z,102574.77
2022-12-04T12:45:36.133Z,102575.88
2022-12-04T12:48:28.815Z,102573.11
2022-12-04T12:51:32.451Z,102577.77
2022-12-04T12:54:22.038Z,102572.63
2022-12-04T12:56:56.631Z,102563.66
2022-12-04T12:59:28.596Z,102564.42
2022-12-04T13:02:06.074Z,102568.68
2022-12-04T13:04:40.661Z,102567.40
2022-12-04T13:07:47.953Z,102566.31
2022-12-04T13:10:20.963Z,102559.10
2022-12-04T13:12:58.501Z,102559.11
2022-12-04T13:15:51.938Z,102571.27
2022-12-04T13:18:43.934Z,102574.13
2022-12-04T13:21:28.540Z,102576.85
2022-12-04T13:24:29.809Z,102575.45
2022-12-04T13:27:14.491Z,102578.19
2022-12-04T13:30:14.660Z,102579.90
2022-12-04T13:32:45.772Z,102571.72
2022-12-04T13:35:37.141Z,102577.15
2022-12-04T13:38:26.419Z,102574.65
2022-12-04T13:40:59.789Z,102560.59
2022-12-04T13:43:30.916Z,102579.65
2022-12-04T13:46:03.363Z,102577.52
2022-12-04T13:48:37.002Z,102576.30
2022-12-04T13:51:35.353Z,102573.84
2022-12-04T13:54:36.691Z,102575.73
2022-12-04T13:57:17.775Z,102571.28
2022-12-04T13:59:48.955Z,102566.26
2022-12-04T14:02:35.426Z,102572.95
2022-12-04T14:05:12.829Z,102561.48
2022-12-04T14:08:17.126Z,102574.85
2022-12-04T14:10:57.020Z,102570.11
2022-12-04T14:13:31.744Z,102571.54
2022-12-04T14:16:16.842Z,102568.11
2022-12-04T14:18:51.281Z,102567.95
2022-12-04T14:21:19.608Z,102572.39
2022-12-04T14:23:49.002Z,102569.60
2022-12-04T14:26:22.473Z,102566.25
2022-12-04T14:28:50.908Z,102562.20
2022-12-04T14:31:28.097Z,102561.35
2022-12-04T14:34:04.280Z,102551.80
2022-12-04T14:36:42.409Z,102556.80
2022-12-04T14:39:29.317Z,102555.77
2022-12-04T14:42:15.101Z,102556.16
2022-12-04T14:44:46.361Z,102537.71
2022-12-04T14:47:35.064Z,102555.05
2022-12-04T14:50:11.083Z,102555.63
2022-12-04T14:53:27.097Z,102558.09
2022-12-04T14:56:13.627Z,102561.83
2022-12-04T14:58:43.506Z,102564.14
2022-12-04T15:01:32.778Z,102566.66
2022-12-04T15:04:12.392Z,102564.92
2022-12-04T15:06:41.523Z,102562.34
2022-12-04T15:09:35.258Z,102563.74
2022-12-04T15:12:35.218Z,102559.59
2022-12-04T15:15:22.122Z,102557.13
2022-12-04T15:18:04.294Z,102539.25
2022-12-04T15:20:41.600Z,102554.17
2022-12-04T15:23:15.913Z,102557.85
2022-12-04T15:25:58.690Z,102557.09
2022-12-04T15:28:49.328Z,102557.95
2022-12-04T15:31:48.444Z,102563.41
2022-12-04T15:34:21.527Z,102552.30
2022-12-04T15:37:07.866Z,102558.67
2022-12-04T15:39:38.275Z,102572.94
2022-12-04T15:42:24.956Z,102580.08
2022-12-04T15:45:08.491Z,102582.96
2022-12-04T15:47:43.037Z,102582.00
2022-12-04T15:50:31.959Z,102584.01
2022-12-04T15:53:00.503Z,102587.98
2022-12-04T15:55:36.936Z,102589.05
2022-12-04T15:58:17.001Z,102585.67
2022-12-04T16:00:45.591Z,102587.44
2022-12-04T16:03:31.313Z,102586.41
2022-12-04T16:06:16.203Z,102584.80
2022-12-04T16:08:47.176Z,102587.57
2022-12-04T16:11:18.718Z,102583.38
2022-12-04T16:14:08.532Z,102581.81
2022-12-04T16:16:42.365Z,102581.35
2022-12-04T16:19:32.500Z,102553.16
2022-12-04T16:22:04.613Z,102570.65
2022-12-04T16:24:33.000Z,102557.58
2022-12-04T16:27:01.520Z,102563.40
2022-12-04T16:29:31.652Z,102553.98
2022-12-04T16:32:03.528Z,102534.61
2022-12-04T16:34:32.570Z,102541.54
2022-12-04T16:37:01.286Z,102544.29
2022-12-04T16:39:29.989Z,102546.21
2022-12-04T16:41:58.442Z,102538.96
2022-12-04T16:44:26.835Z,102547.33
2022-12-04T16:46:55.363Z,102547.78
2022-12-04T16:49:23.866Z,102549.40
2022-12-04T16:51:52.211Z,102547.85
2022-12-04T16:54:20.544Z,102539.16
2022-12-04T16:56:48.824Z,102537.08
2022-12-04T16:59:17.451Z,102535.66
2022-12-04T17:01:48.964Z,102534.62
2022-12-04T17:04:18.181Z,102533.46
2022-12-04T17:06:47.196Z,102537.80
2022-12-04T17:09:15.730Z,102533.46
2022-12-04T17:11:44.832Z,102530.80
2022-12-04T17:14:13.479Z,102518.61
2022-12-04T17:16:43.685Z,102534.57
2022-12-04T17:19:12.616Z,102536.75
2022-12-04T17:21:41.798Z,102536.75
2022-12-04T17:24:10.095Z,102535.00
2022-12-04T17:26:38.554Z,102535.70
2022-12-04T17:29:06.802Z,102538.16
2022-12-04T17:31:35.046Z,102544.29
2022-12-04T17:34:03.598Z,102540.48
2022-12-04T17:36:33.569Z,102541.55
2022-12-04T17:39:02.200Z,102541.80
2022-12-04T17:41:30.794Z,102535.30
2022-12-04T17:44:01.534Z,102546.14
2022-12-04T17:46:30.088Z,102549.44
2022-12-04T17:49:01.549Z,102544.58
2022-12-04T17:51:32.921Z,102544.44
2022-12-04T17:54:01.990Z,102543.23
2022-12-04T17:56:30.452Z,102547.75
2022-12-04T17:58:59.301Z,102521.67
2022-12-04T18:01:29.522Z,102549.59
2022-12-04T18:04:00.165Z,102551.17
2022-12-04T18:06:31.598Z,102538.87
2022-12-04T18:09:00.345Z,102539.55
2022-12-04T18:11:31.955Z,102552.59
2022-12-04T18:14:12.286Z,102537.71
2022-12-04T18:16:52.274Z,102554.66
2022-12-04T18:19:23.259Z,102555.79
2022-12-04T18:21:51.875Z,102555.67
2022-12-04T18:24:23.547Z,102551.90
2022-12-04T18:26:52.506Z,102554.55
2022-12-04T18:29:23.865Z,102556.51
2022-12-04T18:31:53.186Z,102559.46
2022-12-04T18:34:22.475Z,102562.75
2022-12-04T18:36:51.090Z,102560.64
2022-12-04T18:39:22.311Z,102560.09
2022-12-04T18:41:51.418Z,102557.71
2022-12-04T18:44:20.735Z,102564.00
2022-12-04T18:46:49.666Z,102565.68
2022-12-04T18:49:17.999Z,102567.13
2022-12-04T18:51:49.864Z,102555.36
2022-12-04T18:54:23.707Z,102567.42
2022-12-04T18:56:52.431Z,102551.86
2022-12-04T18:59:27.059Z,102569.40
2022-12-04T19:01:56.056Z,102569.80
2022-12-04T19:04:25.986Z,102569.88
2022-12-04T19:06:56.414Z,102564.77
2022-12-04T19:12:17.177Z,102568.03
2022-12-04T19:14:45.598Z,102568.98
2022-12-04T19:17:15.253Z,102576.41
2022-12-04T19:19:43.694Z,102564.52
2022-12-04T19:22:12.175Z,102584.47
2022-12-04T19:24:40.968Z,102593.39
2022-12-04T19:27:12.335Z,102598.30
2022-12-04T19:29:42.656Z,102602.20
2022-12-04T19:32:12.267Z,102602.89
2022-12-04T19:34:41.009Z,102604.17
2022-12-04T19:37:10.142Z,102595.75
2022-12-04T19:39:38.767Z,102608.83
2022-12-04T19:42:07.898Z,102589.27
2022-12-04T19:44:52.248Z,102600.75
2022-12-04T19:47:20.689Z,102603.17
2022-12-04T19:49:49.075Z,102608.85
2022-12-04T19:52:17.933Z,102612.76
2022-12-04T19:54:46.399Z,102611.40
2022-12-04T19:57:15.237Z,102608.33
2022-12-04T19:59:46.644Z,102602.25
2022-12-04T20:02:15.746Z,102607.48
2022-12-04T20:04:44.737Z,102610.58
2022-12-04T20:07:13.382Z,102611.88
2022-12-04T20:09:43.134Z,102615.73
2022-12-04T20:12:14.219Z,102605.83
2022-12-04T20:14:43.240Z,102617.44
2022-12-04T20:17:11.803Z,102618.21
2022-12-04T20:19:40.920Z,102619.36
2022-12-04T20:22:12.271Z,102622.42
2022-12-04T20:24:40.964Z,102625.39
2022-12-04T20:27:14.357Z,102629.48
2022-12-04T20:29:44.314Z,102625.39
2022-12-04T20:32:14.072Z,102630.36
2022-12-04T20:34:43.910Z,102626.40
2022-12-04T20:37:12.675Z,102620.52
2022-12-04T20:39:41.403Z,102619.97
2022-12-04T20:42:09.881Z,102620.49
2022-12-04T20:44:38.168Z,102625.16
2022-12-04T20:47:06.643Z,102625.65
2022-12-04T20:49:35.056Z,102620.94
2022-12-04T20:52:03.800Z,102621.76
2022-12-04T20:54:37.884Z,102623.64
2022-12-04T20:57:10.251Z,102625.11
2022-12-04T20:59:38.633Z,102623.37
2022-12-04T21:02:07.143Z,102629.15
2022-12-04T21:04:37.959Z,102621.20
2022-12-04T21:07:07.160Z,102630.23
2022-12-04T21:09:36.417Z,102630.23
2022-12-04T21:12:25.416Z,102625.73
2022-12-04T21:15:12.695Z,102627.70
2022-12-04T21:17:41.059Z,102620.29
2022-12-04T21:20:11.056Z,102617.18
2022-12-04T21:22:39.420Z,102619.72
2022-12-04T21:25:09.376Z,102616.87
2022-12-04T21:27:37.887Z,102612.41
2022-12-04T21:30:08.433Z,102615.43
2022-12-04T21:32:37.524Z,102614.90
2022-12-04T21:35:06.519Z,102611.23
2022-12-04T21:37:35.187Z,102610.11
2022-12-04T21:40:04.195Z,102604.38
2022-12-04T21:42:34.957Z,102602.52
2022-12-04T21:45:06.585Z,102603.45
2022-12-04T21:47:36.304Z,102601.90
2022-12-04T21:50:06.012Z,102596.16
2022-12-04T21:52:34.572Z,102596.48
2022-12-04T21:55:03.015Z,102587.67
2022-12-04T21:57:31.251Z,102596.08
2022-12-04T21:59:59.531Z,102585.95
2022-12-04T22:02:28.062Z,102596.28
2022-12-04T22:04:56.558Z,102594.30
2022-12-04T22:07:27.360Z,102574.48
2022-12-04T22:09:56.062Z,102592.74
2022-12-04T22:12:48.327Z,102593.88
2022-12-04T22:16:02.918Z,102593.69
2022-12-04T22:18:39.746Z,102593.02
2022-12-04T22:21:14.209Z,102592.39
2022-12-04T22:23:43.318Z,102584.95
2022-12-04T22:26:13.983Z,102582.34
2022-12-04T22:28:42.732Z,102584.14
2022-12-04T22:31:17.365Z,102585.20
2022-12-04T22:33:53.690Z,102566.69
2022-12-04T22:36:25.778Z,102577.03
2022-12-04T22:39:10.829Z,102579.42
2022-12-04T22:41:39.661Z,102578.89
2022-12-04T22:44:07.893Z,102579.61
2022-12-04T22:46:36.266Z,102576.09
2022-12-04T22:49:04.581Z,102578.38
2022-12-04T22:51:32.764Z,102581.55
2022-12-04T22:54:00.996Z,102580.66
2022-12-04T22:56:31.654Z,102575.93
2022-12-04T22:59:00.596Z,102580.12
2022-12-04T23:01:34.325Z,102582.21
2022-12-04T23:04:03.837Z,102585.87
2022-12-04T23:06:34.117Z,102589.09
2022-12-04T23:09:06.534Z,102589.63
2022-12-04T23:11:35.921Z,102591.91
2022-12-04T23:14:06.713Z,102587.91
2022-12-04T23:16:37.055Z,102579.91
2022-12-04T23:19:07.004Z,102565.13
2022-12-04T23:21:35.758Z,102573.38
2022-12-04T23:24:04.583Z,102577.65
2022-12-04T23:26:39.219Z,102581.47
2022-12-04T23:29:29.746Z,102579.77
2022-12-04T23:31:56.420Z,102577.29
2022-12-04T23:34:24.984Z,102579.73
2022-12-04T23:36:54.008Z,102581.09
2022-12-04T23:39:22.615Z,102584.54
2022-12-04T23:41:51.271Z,102584.20
2022-12-04T23:44:19.851Z,102582.10
2022-12-04T23:46:48.385Z,102571.36
2022-12-04T23:49:17.014Z,102568.91
2022-12-04T23:51:45.388Z,102559.08
2022-12-04T23:54:13.675Z,102563.82
2022-12-04T23:56:42.497Z,102560.67
2022-12-04T23:59:10.835Z,102557.90
